Date,TemperatureHighF,TemperatureAvgF,TemperatureLowF,DewpointHighF,DewpointAvgF,DewpointLowF,HumidityHigh,HumidityAvg,HumidityLow,PressureMaxIn,PressureMinIn,WindSpeedMaxMPH,WindSpeedAvgMPH,GustSpeedMaxMPH,PrecipitationSumIn
2013-3-1,63,55,50,47,44,41,82,67,49,29.77,29.66,35,12,35,0.00
2013-3-2,57,52,48,45,42,38,78,68,54,29.66,29.38,20,4,21,0.00
2013-3-3,64,45,37,38,22,16,69,41,19,29.62,29.43,16,3,18,0.00
2013-3-4,52,42,34,29,22,18,53,46,36,29.67,29.42,5,1,7,0.00
2013-3-5,46,41,36,34,27,20,79,59,47,29.42,29.19,10,2,12,0.03
2013-3-6,47,40,38,40,35,33,85,81,73,29.29,29.00,29,5,32,0.27
2013-3-7,56,46,38,35,31,25,80,59,37,29.45,29.29,0,0,0,0.00
2013-3-8,56,45,36,38,31,25,71,59,46,29.54,29.42,7,1,8,0.00
2013-3-9,60,48,37,38,32,28,72,55,37,29.78,29.55,10,0,10,0.00
2013-3-10,63,48,41,46,34,28,65,57,50,29.79,29.65,15,3,17,0.00
2013-3-11,65,52,45,39,36,32,70,56,39,29.72,29.59,12,3,16,0.00
2013-3-12,69,54,48,47,42,37,80,64,38,29.59,29.45,30,11,30,0.00
2013-3-13,71,57,49,47,42,39,72,57,40,29.57,29.48,16,0,19,0.13
2013-3-14,73,58,50,49,44,32,72,60,38,29.49,29.38,15,1,15,0.00
2013-3-15,70,57,48,47,42,37,80,58,39,29.57,29.47,20,7,20,0.00
2013-3-16,58,49,39,42,37,29,78,64,44,29.47,29.19,16,3,19,0.01
2013-3-17,52,45,37,31,28,24,72,52,38,29.51,29.28,28,12,29,0.00
2013-3-18,65,44,35,33,28,23,76,56,25,29.61,29.44,36,7,36,0.00
2013-3-19,52,43,34,33,25,21,74,49,38,29.62,29.16,5,0,5,0.01
2013-3-20,58,45,38,46,35,29,84,70,35,29.33,28.93,35,3,35,0.15
2013-3-21,52,41,34,33,28,24,76,61,41,29.51,29.33,0,0,0,0.00
2013-3-22,64,41,33,33,23,20,74,50,30,29.69,29.49,0,0,0,0.00
2013-3-23,76,46,34,34,22,17,55,41,18,29.76,29.65,0,0,0,0.00
2013-3-24,69,44,34,31,22,17,58,43,22,29.72,29.55,0,0,0,0.00
2013-3-25,56,46,37,30,25,20,51,44,36,29.56,29.36,0,0,0,0.00
2013-3-26,63,52,45,36,31,26,51,44,36,29.41,29.33,0,0,0,0.00
2013-3-27,66,55,49,46,40,34,65,56,46,29.38,29.31,0,0,0,0.01
2013-3-28,66,57,49,46,41,38,68,56,43,29.48,29.38,0,0,0,0.00
2013-3-29,70,59,51,47,42,38,65,53,38,29.60,29.48,0,0,0,0.00
2013-3-30,72,59,49,44,39,35,65,50,33,29.66,29.48,0,0,0,0.00
2013-3-31,74,60,48,45,38,33,59,46,34,29.48,29.29,0,0,0,0.00